Time;durP1;ratioP1;P1;durP2;ratioP2;P2;SDS_P1;SDS_P2;PMS_P1;PMS_P2;Temp;Humidity;BMP_temperature;BMP_pressure;BME280_temperature;BME280_humidity;BME280_pressure;Samples;Min_cycle;Max_cycle;Signal;HPM_P1;HPM_P2
2023/12/25 00:01:04;;;;;;;25.10;20.20;;;;;;;4.12;89.42;99213.59;5093575;28;20028;-48
2023/12/25 00:03:30;;;;;;;14.38;10.75;;;;;;;4.02;90.78;99221.44;5094839;28;20485;-48
2023/12/25 00:05:57;;;;;;;16.27;12.57;;;;;;;3.94;91.16;99226.53;5093442;28;20528;-48
2023/12/25 00:08:22;;;;;;;12.90;9.73;;;;;;;3.83;92.31;99222.34;5094746;28;20049;-48
2023/12/25 00:10:48;;;;;;;11.93;8.65;;;;;;;3.78;93.96;99217.59;5094711;28;20020;-48
2023/12/25 00:13:14;;;;;;;13.43;9.35;;;;;;;3.82;94.32;99209.50;5094625;28;20486;-48
2023/12/25 00:15:39;;;;;;;15.43;9.20;;;;;;;3.75;94.81;99215.28;5093228;28;20074;-48
2023/12/25 00:18:05;;;;;;;14.52;10.82;;;;;;;3.73;95.84;99211.19;5094583;28;20028;-48
2023/12/25 00:20:31;;;;;;;14.27;9.57;;;;;;;3.81;96.79;99206.09;5094446;28;20384;-48
2023/12/25 00:22:56;;;;;;;16.65;11.57;;;;;;;3.81;96.73;99206.09;5092893;28;20139;-47
2023/12/25 00:25:22;;;;;;;18.80;10.50;;;;;;;3.80;97.40;99207.91;5094436;28;20034;-48
2023/12/25 00:27:48;;;;;;;17.80;11.57;;;;;;;4.04;98.97;99211.72;5094279;28;20498;-48
2023/12/25 00:30:14;;;;;;;13.13;8.88;;;;;;;4.30;99.88;99211.03;5093027;28;20032;-48
2023/12/25 00:32:40;;;;;;;13.35;8.77;;;;;;;4.78;100.00;99209.84;5094313;28;20101;-48
2023/12/25 00:35:05;;;;;;;13.98;9.02;;;;;;;5.34;100.00;99206.00;5092914;28;20040;-48
2023/12/25 00:37:31;;;;;;;13.85;9.98;;;;;;;5.73;99.66;99200.34;5094217;28;20020;-49
2023/12/25 00:39:57;;;;;;;12.98;9.77;;;;;;;5.68;97.34;99194.00;5094344;28;20481;-48
2023/12/25 00:42:22;;;;;;;16.25;9.02;;;;;;;5.44;95.21;99194.69;5094080;28;20028;-49
2023/12/25 00:44:49;;;;;;;15.07;12.15;;;;;;;5.32;95.58;99194.13;5075959;28;20057;-48
2023/12/25 00:47:14;;;;;;;34.70;27.30;;;;;;;5.41;96.37;99190.59;5092637;28;20035;-48
2023/12/25 00:49:40;;;;;;;13.20;10.70;;;;;;;5.50;96.31;99184.47;5093910;28;20025;-48
2023/12/25 00:52:06;;;;;;;11.30;8.65;;;;;;;5.65;95.92;99189.91;5092584;28;20470;-48
2023/12/25 00:54:32;;;;;;;20.08;15.38;;;;;;;5.59;95.94;99178.34;5093837;28;20053;-48
2023/12/25 00:56:58;;;;;;;19.42;14.93;;;;;;;5.49;96.62;99176.81;5093735;28;20028;-48
2023/12/25 00:59:24;;;;;;;15.70;12.45;;;;;;;5.41;97.26;99174.97;5092377;28;20375;-48
2023/12/25 01:01:50;;;;;;;16.42;12.82;;;;;;;5.35;98.45;99180.78;5093555;28;20031;-48
2023/12/25 01:04:16;;;;;;;11.27;9.05;;;;;;;5.24;99.52;99176.69;5092875;28;20118;-48
2023/12/25 01:06:41;;;;;;;46.88;41.75;;;;;;;5.03;99.38;99171.00;5093564;28;20028;-48
2023/12/25 01:09:07;;;;;;;100.20;84.85;;;;;;;4.94;100.00;99170.97;5093524;28;20051;-48
2023/12/25 01:11:40;;;;;;;37.55;31.45;;;;;;;5.09;100.00;99167.78;5092302;28;20043;-49
2023/12/25 01:14:05;;;;;;;34.92;31.17;;;;;;;4.94;99.73;99181.34;5093488;28;20031;-48
2023/12/25 01:16:31;;;;;;;15.88;10.32;;;;;;;4.79;100.00;99175.09;5092046;28;20165;-48
2023/12/25 01:18:57;;;;;;;11.73;8.48;;;;;;;4.60;100.00;99176.06;5091982;28;20027;-48
2023/12/25 01:21:22;;;;;;;22.23;15.70;;;;;;;4.54;100.00;99174.88;5093335;28;20026;-48
2023/12/25 01:23:48;;;;;;;17.08;10.13;;;;;;;4.87;100.00;99188.16;5093143;28;20071;-48
2023/12/25 01:26:14;;;;;;;17.05;10.40;;;;;;;5.44;100.00;99184.28;5093203;28;20493;-49
2023/12/25 01:28:39;;;;;;;12.38;8.43;;;;;;;5.99;100.00;99176.06;5093104;28;20024;-49
2023/12/25 01:31:06;;;;;;;13.65;8.43;;;;;;;5.95;100.00;99170.34;5091856;28;20028;-48
2023/12/25 01:33:31;;;;;;;15.80;14.20;;;;;;;5.72;99.48;99171.88;5091801;28;20081;-49
2023/12/25 01:35:57;;;;;;;13.40;9.48;;;;;;;5.92;100.00;99170.63;5091703;28;20051;-48
2023/12/25 01:38:23;;;;;;;11.73;8.95;;;;;;;5.72;98.26;99169.28;5091759;28;20035;-48
2023/12/25 01:40:48;;;;;;;11.00;8.60;;;;;;;5.56;98.92;99164.81;5092871;28;20056;-49
2023/12/25 01:43:14;;;;;;;9.25;7.65;;;;;;;5.38;97.28;99168.28;5091658;28;20488;-49
2023/12/25 01:45:40;;;;;;;12.23;8.23;;;;;;;5.34;99.05;99179.19;5092872;28;20016;-48
2023/12/25 01:48:07;;;;;;;10.45;8.60;;;;;;;5.73;100.00;99176.91;5092849;28;20025;-48
2023/12/25 01:50:33;;;;;;;13.30;8.38;;;;;;;5.80;98.04;99175.31;5092799;28;20031;-49
2023/12/25 01:53:00;;;;;;;11.77;7.45;;;;;;;5.65;96.45;99170.84;5092805;28;20024;-48
2023/12/25 01:55:27;;;;;;;9.02;7.35;;;;;;;5.23;93.61;99169.03;5092661;28;20020;-48
2023/12/25 01:57:53;;;;;;;12.80;10.05;;;;;;;4.97;95.22;99178.47;5091339;28;20035;-48
2023/12/25 02:00:19;;;;;;;15.25;12.15;;;;;;;5.39;98.94;99175.16;5092461;28;20038;-48
2023/12/25 02:02:45;;;;;;;10.30;6.57;;;;;;;5.49;97.17;99179.41;5074239;28;20798;-48
2023/12/25 02:05:11;;;;;;;13.57;7.75;;;;;;;5.19;93.93;99171.09;5092542;28;20028;-49
2023/12/25 02:07:42;;;;;;;9.38;6.38;;;;;;;4.83;92.91;99175.59;5091279;28;20031;-48
2023/12/25 02:10:08;;;;;;;8.52;6.55;;;;;;;4.53;93.17;99173.25;5092448;28;20067;-48
2023/12/25 02:12:35;;;;;;;13.23;6.72;;;;;;;4.34;94.84;99173.38;5092389;28;20233;-48
2023/12/25 02:15:02;;;;;;;9.77;6.40;;;;;;;4.47;96.92;99171.25;5092254;28;20024;-48
2023/12/25 02:17:30;;;;;;;19.73;15.60;;;;;;;4.93;100.00;99161.53;5092423;28;20021;-48
2023/12/25 02:19:57;;;;;;;15.35;8.18;;;;;;;5.23;99.84;99158.63;5092254;28;20105;-48
2023/12/25 02:22:22;;;;;;;13.85;10.07;;;;;;;5.18;97.82;99166.88;5092069;28;20039;-49
2023/12/25 02:24:58;;;;;;;10.43;6.85;;;;;;;5.38;98.43;99168.28;5092248;28;20021;-48
2023/12/25 02:27:24;;;;;;;9.05;6.07;;;;;;;5.37;97.13;99166.69;5092181;28;20115;-48
2023/12/25 02:29:50;;;;;;;9.55;6.53;;;;;;;5.42;97.63;99162.78;5090858;28;20524;-48
2023/12/25 02:32:16;;;;;;;9.05;6.30;;;;;;;5.70;99.28;99160.81;5073995;28;20616;-48
2023/12/25 02:34:44;;;;;;;12.85;9.80;;;;;;;5.51;97.09;99161.84;5090747;28;20126;-49
2023/12/25 02:37:10;;;;;;;10.05;8.02;;;;;;;5.08;94.68;99171.38;5090723;28;20024;-48
2023/12/25 02:39:36;;;;;;;12.63;7.68;;;;;;;4.54;92.88;99159.28;5090613;28;20043;-49
2023/12/25 02:42:01;;;;;;;13.90;8.68;;;;;;;4.09;93.55;99173.16;5091954;28;20378;-48
2023/12/25 02:44:27;;;;;;;13.35;9.02;;;;;;;3.79;95.21;99174.28;5091977;28;20028;-48
2023/12/25 02:46:53;;;;;;;14.57;11.90;;;;;;;3.88;97.67;99167.41;5090604;28;20115;-48
2023/12/25 02:49:18;;;;;;;10.23;7.45;;;;;;;4.05;98.50;99184.81;5091903;28;20059;-48
2023/12/25 02:51:44;;;;;;;11.38;7.75;;;;;;;3.92;97.67;99186.91;5091866;28;20024;-48
2023/12/25 02:54:10;;;;;;;14.98;8.02;;;;;;;3.77;97.85;99200.38;5092109;28;20048;-48
2023/12/25 02:56:35;;;;;;;12.10;9.80;;;;;;;4.10;100.00;99190.34;5091810;28;20495;-48
2023/12/25 02:59:01;;;;;;;10.55;7.80;;;;;;;4.51;99.74;99185.56;5090466;28;20070;-48
2023/12/25 03:01:27;;;;;;;9.15;6.82;;;;;;;4.64;99.41;99180.00;5091775;28;20031;-48
2023/12/25 03:03:52;;;;;;;11.75;6.75;;;;;;;4.94;99.23;99176.16;5090480;28;20024;-48
2023/12/25 03:06:18;;;;;;;18.38;12.90;;;;;;;5.10;98.30;99175.47;5090404;28;20482;-48
2023/12/25 03:08:44;;;;;;;11.18;6.10;;;;;;;5.17;97.81;99171.28;5090376;28;20036;-48
2023/12/25 03:11:09;;;;;;;10.90;6.40;;;;;;;5.08;97.08;99166.19;5090403;28;20103;-48
2023/12/25 03:13:35;;;;;;;9.18;6.50;;;;;;;5.27;98.01;99165.13;5091620;28;20017;-48
2023/12/25 03:16:05;;;;;;;11.18;6.65;;;;;;;5.22;95.29;99173.41;5090317;28;20097;-48
2023/12/25 03:18:31;;;;;;;9.02;5.70;;;;;;;4.84;94.15;99172.84;5091600;28;20073;-48
2023/12/25 03:20:57;;;;;;;7.85;6.05;;;;;;;4.69;94.79;99167.38;5090270;28;20031;-48
2023/12/25 03:23:23;;;;;;;7.43;5.82;;;;;;;4.67;95.24;99168.47;5090026;28;20463;-48
2023/12/25 03:25:48;;;;;;;12.88;9.35;;;;;;;4.57;93.46;99164.19;5092076;28;20055;-48
2023/12/25 03:28:14;;;;;;;7.72;5.60;;;;;;;4.34;92.38;99171.59;5095574;28;20085;-48
2023/12/25 03:30:40;;;;;;;9.07;6.53;;;;;;;4.15;93.86;99163.97;5095507;28;20051;-48
2023/12/25 03:33:07;;;;;;;8.95;5.93;;;;;;;4.23;95.04;99160.63;5095509;28;20074;-48
2023/12/25 03:35:36;;;;;;;9.73;6.25;;;;;;;4.40;95.69;99159.81;5094122;28;20032;-48
2023/12/25 03:38:02;;;;;;;9.70;6.53;;;;;;;4.50;95.42;99160.53;5095391;28;20016;-48
2023/12/25 03:40:27;;;;;;;7.55;5.60;;;;;;;4.52;95.21;99157.78;5095225;28;20027;-48
2023/12/25 03:42:54;;;;;;;8.90;6.00;;;;;;;4.69;94.42;99158.72;5095282;28;20512;-48
2023/12/25 03:45:20;;;;;;;10.13;6.60;;;;;;;4.55;92.97;99158.31;5093934;28;20078;-48
2023/12/25 03:47:46;;;;;;;10.73;7.70;;;;;;;4.28;91.97;99158.41;5095152;28;20456;-48
2023/12/25 03:50:11;;;;;;;10.88;7.20;;;;;;;4.02;92.70;99161.69;5095120;28;20134;-48
2023/12/25 03:52:37;;;;;;;9.75;7.68;;;;;;;4.03;94.08;99163.34;5095062;28;20020;-48
2023/12/25 03:55:03;;;;;;;12.27;7.57;;;;;;;4.65;96.84;99152.19;5093660;28;20020;-48
2023/12/25 03:57:29;;;;;;;11.40;7.45;;;;;;;5.24;95.83;99150.66;5093696;28;20030;-48
2023/12/25 03:59:55;;;;;;;9.30;7.15;;;;;;;5.84;96.07;99147.19;5094838;28;20026;-48
2023/12/25 04:02:20;;;;;;;12.77;6.80;;;;;;;6.13;93.50;99138.94;5094872;28;20059;-48
2023/12/25 04:04:47;;;;;;;8.60;6.40;;;;;;;6.56;92.57;99142.28;5094826;28;20024;-48
2023/12/25 04:07:14;;;;;;;13.18;10.15;;;;;;;6.94;89.86;99139.13;5093468;28;20498;-48
2023/12/25 04:09:41;;;;;;;12.43;9.07;;;;;;;7.05;87.26;99135.38;5094683;28;20058;-49
2023/12/25 04:12:07;;;;;;;9.18;7.78;;;;;;;6.89;84.69;99144.03;5093508;28;20031;-49
2023/12/25 04:14:38;;;;;;;10.77;6.90;;;;;;;6.53;82.10;99141.78;5093418;28;20402;-48
2023/12/25 04:17:04;;;;;;;11.57;8.35;;;;;;;6.17;81.32;99149.88;5094656;28;20027;-48
2023/12/25 04:19:29;;;;;;;10.73;8.30;;;;;;;5.87;81.63;99141.63;5094432;28;20024;-48
2023/12/25 04:21:55;;;;;;;11.15;7.35;;;;;;;5.91;83.19;99145.56;5093295;28;20107;-48
2023/12/25 04:24:21;;;;;;;15.75;8.80;;;;;;;6.04;83.16;99142.53;5092970;28;20044;-48
2023/12/25 04:26:46;;;;;;;10.38;7.15;;;;;;;6.15;82.60;99138.81;5093060;28;20024;-48
2023/12/25 04:29:12;;;;;;;15.65;13.38;;;;;;;6.32;82.33;99135.25;5094412;28;20122;-48
2023/12/25 04:31:38;;;;;;;12.45;10.00;;;;;;;6.52;81.82;99132.31;5092990;28;20551;-49
2023/12/25 04:34:03;;;;;;;14.02;11.80;;;;;;;6.61;80.87;99126.13;5094197;28;20458;-49
2023/12/25 04:36:29;;;;;;;14.52;13.10;;;;;;;6.59;79.50;99128.09;5094148;28;20073;-48
2023/12/25 04:38:55;;;;;;;10.10;7.57;;;;;;;6.66;80.03;99123.00;5092784;28;20405;-49
2023/12/25 04:41:21;;;;;;;14.80;12.18;;;;;;;6.63;79.42;99120.75;5092790;28;20038;-49
2023/12/25 04:43:48;;;;;;;11.95;6.75;;;;;;;6.44;79.26;99119.28;5094098;28;20024;-49
2023/12/25 04:46:13;;;;;;;164.95;147.35;;;;;;;6.59;79.33;99118.47;5094096;28;20417;-48
2023/12/25 04:48:39;;;;;;;35.00;29.38;;;;;;;6.90;79.13;99115.19;5092707;28;20024;-49
2023/12/25 04:51:04;;;;;;;18.13;14.95;;;;;;;6.95;77.39;99112.88;5093960;28;20517;-49
2023/12/25 04:53:31;;;;;;;10.45;8.60;;;;;;;6.52;76.20;99119.25;5093865;28;20097;-48
2023/12/25 04:55:57;;;;;;;8.15;6.25;;;;;;;5.89;74.32;99121.44;5092501;28;20032;-49
2023/12/25 04:58:23;;;;;;;8.90;8.00;;;;;;;5.47;76.43;99124.09;5093874;28;20050;-49
2023/12/25 05:00:49;;;;;;;8.45;6.15;;;;;;;5.50;78.56;99118.56;5092330;28;20032;-48
2023/12/25 05:03:14;;;;;;;6.90;4.60;;;;;;;5.49;77.18;99122.13;5093726;28;20028;-48
2023/12/25 05:05:40;;;;;;;6.03;4.75;;;;;;;5.05;74.16;99117.88;5092335;28;20139;-48
2023/12/25 05:08:06;;;;;;;9.32;6.93;;;;;;;4.43;76.86;99110.16;5093569;28;20038;-48
2023/12/25 05:10:31;;;;;;;7.95;5.60;;;;;;;3.92;79.55;99117.63;5093555;28;20110;-48
2023/12/25 05:12:57;;;;;;;19.00;16.08;;;;;;;3.59;81.18;99106.88;5093539;28;20039;-48
2023/12/25 05:15:23;;;;;;;11.60;7.82;;;;;;;3.55;82.60;99102.16;5093400;28;20476;-48
2023/12/25 05:17:49;;;;;;;13.65;8.23;;;;;;;3.54;83.88;99108.28;5093487;28;20450;-48
2023/12/25 05:20:14;;;;;;;8.43;6.28;;;;;;;3.53;84.23;99107.47;5092279;28;20402;-48
2023/12/25 05:22:40;;;;;;;8.45;6.82;;;;;;;3.38;84.40;99106.31;5092978;28;20121;-48
2023/12/25 05:25:06;;;;;;;11.60;7.55;;;;;;;3.28;85.29;99101.19;5092072;28;20036;-48
2023/12/25 05:27:31;;;;;;;10.70;7.40;;;;;;;3.28;86.52;99098.59;5093245;28;20077;-48
2023/12/25 05:29:57;;;;;;;8.60;6.28;;;;;;;3.78;88.54;99095.59;5093204;28;20461;-48
2023/12/25 05:32:23;;;;;;;9.23;6.00;;;;;;;4.50;88.75;99099.94;5093163;28;20020;-48
2023/12/25 05:34:48;;;;;;;9.18;6.75;;;;;;;5.19;87.87;99096.50;5093066;28;20048;-48
2023/12/25 05:37:14;;;;;;;8.63;6.65;;;;;;;5.94;86.12;99093.16;5093097;28;20023;-48
2023/12/25 05:39:40;;;;;;;8.93;6.68;;;;;;;6.51;84.20;99095.00;5091661;28;20050;-49
2023/12/25 05:42:05;;;;;;;7.72;6.15;;;;;;;6.72;81.73;99096.28;5092998;28;20109;-48
2023/12/25 05:44:31;;;;;;;12.88;7.32;;;;;;;6.90;79.85;99101.31;5092914;28;20024;-48
2023/12/25 05:46:57;;;;;;;21.20;14.10;;;;;;;6.94;78.09;99100.00;5091557;28;20073;-48
2023/12/25 05:49:22;;;;;;;10.65;7.82;;;;;;;6.61;76.78;99115.69;5092472;28;20102;-49
2023/12/25 05:51:48;;;;;;;10.60;6.88;;;;;;;6.16;77.05;99115.19;5092781;28;20012;-49
2023/12/25 05:54:13;;;;;;;12.85;8.32;;;;;;;5.76;77.14;99110.69;5092771;28;20558;-49
2023/12/25 05:56:39;;;;;;;12.30;9.55;;;;;;;5.44;77.56;99114.81;5091398;28;20024;-49
2023/12/25 05:59:05;;;;;;;10.05;7.00;;;;;;;5.15;77.49;99115.16;5091286;28;20028;-48
2023/12/25 06:01:30;;;;;;;10.35;7.43;;;;;;;5.02;78.88;99105.16;5092555;28;20497;-48
2023/12/25 06:03:57;;;;;;;9.23;5.85;;;;;;;4.86;78.87;99113.69;5091283;28;20115;-48
2023/12/25 06:06:23;;;;;;;7.85;5.32;;;;;;;4.73;79.51;99114.09;5092524;28;20027;-48
2023/12/25 06:08:48;;;;;;;11.65;4.80;;;;;;;4.75;79.45;99109.56;5091257;28;20020;-48
2023/12/25 06:11:14;;;;;;;5.53;4.22;;;;;;;4.65;79.75;99113.22;5091155;28;20032;-48
2023/12/25 06:13:40;;;;;;;8.90;6.22;;;;;;;4.71;80.57;99115.19;5091046;28;20394;-48
2023/12/25 06:16:06;;;;;;;8.98;6.60;;;;;;;5.18;81.29;99113.06;5092386;28;20023;-48
2023/12/25 06:18:31;;;;;;;50.47;45.20;;;;;;;5.64;80.55;99110.16;5092363;28;20131;-48
2023/12/25 06:20:57;;;;;;;20.48;15.80;;;;;;;5.64;78.38;99123.19;5092194;28;20461;-48
2023/12/25 06:23:23;;;;;;;8.20;5.38;;;;;;;5.36;77.54;99117.38;5091992;28;20055;-48
2023/12/25 06:25:50;;;;;;;9.88;5.80;;;;;;;5.09;77.92;99118.38;5092158;28;20034;-48
2023/12/25 06:28:16;;;;;;;8.82;5.93;;;;;;;4.82;77.95;99114.97;5092065;28;20028;-48
2023/12/25 06:30:42;;;;;;;9.52;5.30;;;;;;;4.58;78.24;99120.81;5090794;28;20036;-48
2023/12/25 06:33:08;;;;;;;9.77;6.30;;;;;;;4.34;78.64;99124.03;5090830;28;20030;-48
2023/12/25 06:35:34;;;;;;;9.95;6.00;;;;;;;4.19;79.71;99121.94;5073889;28;20114;-48
2023/12/25 06:38:00;;;;;;;18.40;14.80;;;;;;;4.12;80.84;99122.69;5090745;28;20028;-48
2023/12/25 06:40:26;;;;;;;7.75;5.38;;;;;;;4.27;80.52;99121.22;5091862;28;20447;-48
2023/12/25 06:42:52;;;;;;;11.55;9.93;;;;;;;4.22;80.16;99120.81;5092213;28;20094;-48
2023/12/25 06:45:17;;;;;;;8.85;6.90;;;;;;;4.09;80.73;99136.78;5091963;28;20024;-48
2023/12/25 06:47:43;;;;;;;7.22;5.50;;;;;;;4.00;81.08;99129.88;5090619;28;20026;-48
2023/12/25 06:50:09;;;;;;;6.90;5.20;;;;;;;4.13;82.28;99129.53;5090617;28;20064;-48
2023/12/25 06:52:34;;;;;;;9.82;5.88;;;;;;;4.19;81.48;99129.75;5091865;28;20036;-48
2023/12/25 06:55:01;;;;;;;8.10;6.63;;;;;;;4.07;81.15;99130.13;5091922;28;20024;-48
2023/12/25 06:57:27;;;;;;;9.70;7.20;;;;;;;4.02;81.70;99134.94;5090503;28;20024;-48
2023/12/25 06:59:53;;;;;;;11.05;5.78;;;;;;;4.36;82.83;99129.88;5091759;28;20031;-48
2023/12/25 07:02:20;;;;;;;9.70;6.07;;;;;;;4.76;83.01;99131.19;5093723;28;20038;-48
2023/12/25 07:04:46;;;;;;;11.70;7.03;;;;;;;5.29;82.74;99138.00;5094687;28;20023;-48
2023/12/25 07:07:12;;;;;;;7.00;5.13;;;;;;;5.56;80.55;99136.19;5095942;28;20031;-48
2023/12/25 07:09:42;;;;;;;9.05;7.72;;;;;;;5.37;79.35;99132.84;5095976;28;20461;-48
2023/12/25 07:12:07;;;;;;;10.35;5.47;;;;;;;5.19;78.12;99139.88;5094635;28;20032;-48
2023/12/25 07:14:33;;;;;;;9.57;5.38;;;;;;;4.93;78.32;99140.72;5095891;28;20073;-48
2023/12/25 07:17:00;;;;;;;13.93;5.47;;;;;;;4.79;79.11;99138.69;5095858;28;20028;-47
2023/12/25 07:19:25;;;;;;;9.65;6.35;;;;;;;4.75;79.36;99139.97;5094349;28;20028;-48
2023/12/25 07:21:51;;;;;;;6.78;4.80;;;;;;;4.59;78.59;99140.66;5094345;28;20027;-48
2023/12/25 07:24:17;;;;;;;8.68;4.90;;;;;;;4.48;79.62;99131.28;5094207;28;20036;-48
2023/12/25 07:26:42;;;;;;;13.68;8.07;;;;;;;4.72;80.20;99138.44;5095607;28;20020;-48
2023/12/25 07:29:08;;;;;;;11.77;7.40;;;;;;;4.96;80.17;99145.59;5094228;28;20051;-48
2023/12/25 07:31:34;;;;;;;8.45;5.57;;;;;;;5.06;79.37;99144.72;5095508;28;20016;-48
2023/12/25 07:34:00;;;;;;;9.32;4.88;;;;;;;5.12;79.44;99144.09;5094191;28;20024;-48
2023/12/25 07:36:27;;;;;;;9.15;4.60;;;;;;;5.85;80.60;99147.97;5095397;28;20020;-48
2023/12/25 07:38:52;;;;;;;11.43;4.78;;;;;;;7.22;78.24;99138.75;5095420;28;20493;-48
2023/12/25 07:41:18;;;;;;;5.55;4.68;;;;;;;8.26;73.98;99137.59;5095527;28;20034;-49
2023/12/25 07:43:44;;;;;;;7.25;4.07;;;;;;;9.06;71.13;99136.31;5093930;28;20491;-48
2023/12/25 07:46:09;;;;;;;9.40;4.60;;;;;;;9.72;68.60;99131.13;5095256;28;20023;-49
2023/12/25 07:48:35;;;;;;;12.98;9.80;;;;;;;10.18;66.10;99130.84;5095164;28;20072;-49
2023/12/25 07:51:01;;;;;;;7.20;5.63;;;;;;;10.25;63.76;99137.97;5093808;28;20035;-49
2023/12/25 07:53:27;;;;;;;8.40;5.20;;;;;;;9.71;62.65;99137.34;5095084;28;20490;-49
2023/12/25 07:55:53;;;;;;;6.65;4.80;;;;;;;9.23;63.53;99138.75;5095089;28;20019;-48
2023/12/25 07:58:19;;;;;;;6.22;4.70;;;;;;;8.85;63.68;99137.00;5095038;28;20024;-48
2023/12/25 08:00:44;;;;;;;120.22;105.85;;;;;;;8.33;64.27;99135.09;5094850;28;20024;-49
2023/12/25 08:03:11;;;;;;;20.90;15.63;;;;;;;8.13;65.27;99138.19;5094835;28;20080;-49
2023/12/25 08:05:38;;;;;;;11.35;9.10;;;;;;;7.96;64.85;99134.03;5094724;28;20024;-48
2023/12/25 08:08:05;;;;;;;9.55;5.57;;;;;;;7.55;65.03;99131.63;5094781;28;20026;-48
2023/12/25 08:10:30;;;;;;;8.95;5.25;;;;;;;7.34;66.21;99140.00;5094728;28;20024;-49
2023/12/25 08:12:58;;;;;;;6.00;4.55;;;;;;;7.36;66.88;99141.50;5093133;28;20030;-48
2023/12/25 08:15:25;;;;;;;6.25;4.57;;;;;;;7.39;66.90;99137.72;5094583;28;20023;-49
2023/12/25 08:17:51;;;;;;;8.23;5.55;;;;;;;7.59;67.48;99152.00;5094885;28;20097;-49
2023/12/25 08:20:17;;;;;;;7.57;5.55;;;;;;;8.25;68.08;99159.53;5094481;28;20486;-48
2023/12/25 08:22:43;;;;;;;6.95;4.82;;;;;;;9.09;66.85;99140.38;5094239;28;20101;-48
2023/12/25 08:25:09;;;;;;;4.55;4.00;;;;;;;10.24;62.62;99133.69;5093174;28;20516;-49
2023/12/25 08:27:35;;;;;;;6.63;4.43;;;;;;;11.10;60.54;99136.25;5094405;28;20020;-49
2023/12/25 08:30:01;;;;;;;6.68;4.88;;;;;;;11.60;56.60;99137.72;5094590;28;20103;-49
2023/12/25 08:32:27;;;;;;;4.95;4.30;;;;;;;12.05;56.03;99128.59;5076193;28;20020;-49
2023/12/25 08:34:53;;;;;;;7.50;5.18;;;;;;;12.57;58.06;99138.38;5094324;28;20039;-49
2023/12/25 08:37:18;;;;;;;15.50;13.93;;;;;;;12.56;61.11;99136.78;5094230;28;20027;-49
2023/12/25 08:39:44;;;;;;;9.38;8.38;;;;;;;12.58;62.68;99147.91;5094141;28;20020;-49
2023/12/25 08:42:10;;;;;;;13.73;11.57;;;;;;;12.62;61.86;99148.34;5094178;28;20478;-48
2023/12/25 08:44:36;;;;;;;13.10;10.65;;;;;;;12.96;62.05;99155.22;5094017;28;20393;-49
2023/12/25 08:47:03;;;;;;;11.73;7.22;;;;;;;13.35;61.73;99144.84;5092768;28;20043;-49
2023/12/25 08:49:29;;;;;;;9.77;6.65;;;;;;;13.83;60.83;99148.94;5094286;28;20453;-49
2023/12/25 08:51:55;;;;;;;17.23;11.90;;;;;;;13.96;57.79;99162.88;5092654;28;20111;-47
2023/12/25 08:54:20;;;;;;;13.15;10.77;;;;;;;14.31;58.01;99164.31;5093930;28;20099;-47
2023/12/25 08:56:47;;;;;;;12.85;8.73;;;;;;;14.51;54.65;99161.56;5092552;28;20024;-47
2023/12/25 08:59:13;;;;;;;14.77;10.98;;;;;;;14.33;53.43;99160.44;5093800;28;20035;-47
2023/12/25 09:01:39;;;;;;;7.90;5.82;;;;;;;14.55;53.40;99162.75;5093746;28;20024;-47
2023/12/25 09:04:06;;;;;;;9.45;5.90;;;;;;;14.79;52.01;99171.75;5093999;28;20032;-47
2023/12/25 09:06:32;;;;;;;9.80;6.68;;;;;;;15.01;51.80;99171.34;5093597;28;20509;-47
2023/12/25 09:08:58;;;;;;;8.27;6.03;;;;;;;15.27;50.22;99162.34;5075567;28;20020;-47
2023/12/25 09:11:24;;;;;;;7.20;6.50;;;;;;;15.61;48.62;99160.97;5092283;28;20036;-47
2023/12/25 09:13:49;;;;;;;9.57;7.43;;;;;;;15.78;47.99;99162.00;5092243;28;20072;-47
2023/12/25 09:16:15;;;;;;;9.55;6.50;;;;;;;16.22;47.71;99158.38;5093517;28;20409;-47
2023/12/25 09:18:41;;;;;;;16.88;15.10;;;;;;;16.61;45.83;99164.94;5093461;28;20024;-47
2023/12/25 09:21:07;;;;;;;12.20;10.93;;;;;;;16.75;44.20;99162.91;5092072;28;20024;-47
2023/12/25 09:23:33;;;;;;;11.95;7.60;;;;;;;16.98;43.87;99162.13;5092417;28;20040;-47
2023/12/25 09:25:58;;;;;;;7.22;6.05;;;;;;;17.36;43.33;99158.19;5093316;28;20020;-47
2023/12/25 09:28:25;;;;;;;7.95;6.65;;;;;;;17.83;42.87;99163.44;5093279;28;20020;-47
2023/12/25 09:30:50;;;;;;;12.18;8.20;;;;;;;18.20;41.28;99164.91;5093166;28;20516;-47
2023/12/25 09:33:16;;;;;;;6.93;5.43;;;;;;;18.47;40.49;99168.59;5091841;28;20020;-47
2023/12/25 09:35:42;;;;;;;8.50;5.20;;;;;;;18.77;39.89;99170.13;5093345;28;20482;-47
2023/12/25 09:38:08;;;;;;;6.63;5.93;;;;;;;19.07;39.46;99163.69;5091823;28;20422;-47
2023/12/25 09:40:33;;;;;;;7.13;4.72;;;;;;;19.10;38.96;99171.19;5091610;28;20081;-47
2023/12/25 09:43:01;;;;;;;7.75;5.40;;;;;;;19.16;38.87;99172.88;5092980;28;20024;-47
2023/12/25 09:45:34;;;;;;;7.47;5.63;;;;;;;19.16;38.90;99176.34;5091580;28;20054;-47
2023/12/25 09:48:00;;;;;;;8.32;6.35;;;;;;;19.34;38.26;99183.25;5091759;28;20070;-47
2023/12/25 09:50:26;;;;;;;9.35;7.35;;;;;;;19.51;37.71;99175.19;5091504;28;20437;-47
2023/12/25 09:52:52;;;;;;;9.15;7.03;;;;;;;19.67;37.22;99178.06;5091495;28;20020;-47
2023/12/25 09:55:18;;;;;;;10.82;6.80;;;;;;;19.91;36.19;99181.31;5092741;28;20409;-47
2023/12/25 09:57:45;;;;;;;6.72;5.72;;;;;;;20.11;36.15;99181.53;5092744;28;20035;-47
2023/12/25 10:00:11;;;;;;;6.88;5.90;;;;;;;20.26;35.58;99182.75;5091276;28;20154;-47
2023/12/25 10:02:45;;;;;;;8.27;6.68;;;;;;;20.41;35.63;99174.09;5092580;28;20027;-47
2023/12/25 10:05:12;;;;;;;6.50;5.68;;;;;;;20.38;35.19;99180.72;5092854;28;20414;-47
2023/12/25 10:07:37;;;;;;;20.40;18.67;;;;;;;20.38;34.92;99180.72;5091327;28;20024;-48
2023/12/25 10:10:05;;;;;;;9.25;6.85;;;;;;;20.45;34.92;99184.00;5092489;28;20371;-47
2023/12/25 10:12:30;;;;;;;10.05;8.02;;;;;;;20.62;34.69;99186.56;5091137;28;20024;-47
2023/12/25 10:14:56;;;;;;;10.07;6.82;;;;;;;20.52;33.94;99189.94;5092458;28;20023;-48
2023/12/25 10:17:22;;;;;;;10.05;7.18;;;;;;;20.43;34.35;99190.66;5092332;28;20012;-48
2023/12/25 10:19:54;;;;;;;10.13;6.30;;;;;;;20.62;34.32;99188.44;5090933;28;20031;-47
2023/12/25 10:22:33;;;;;;;10.63;6.55;;;;;;;20.60;34.29;99185.22;5090619;28;20056;-48
2023/12/25 10:25:10;;;;;;;7.93;6.68;;;;;;;20.67;34.48;99180.50;5091443;28;20024;-47
2023/12/25 10:27:42;;;;;;;9.35;6.47;;;;;;;20.78;33.56;99186.69;5090134;28;20119;-48
2023/12/25 10:30:19;;;;;;;9.32;7.18;;;;;;;20.58;34.11;99187.31;5073202;28;20516;-47
2023/12/25 10:32:47;;;;;;;9.63;7.00;;;;;;;20.43;33.85;99174.66;5091377;28;20099;-47
2023/12/25 10:35:22;;;;;;;7.30;6.60;;;;;;;20.45;33.56;99170.66;5089976;28;20444;-48
2023/12/25 10:37:47;;;;;;;;;;;;;;;20.70;34.30;99172.75;5090515;28;20062;-47
2023/12/25 10:40:26;;;;;;;8.15;6.43;;;;;;;20.75;33.96;99167.47;5089970;28;19948;-47
2023/12/25 10:42:56;;;;;;;9.93;5.85;;;;;;;20.72;33.43;99159.19;5089925;28;20028;-47
2023/12/25 10:45:24;;;;;;;6.35;5.47;;;;;;;20.37;33.60;99152.47;5089918;28;20089;-47
2023/12/25 10:47:53;;;;;;;10.35;8.15;;;;;;;19.80;34.41;99153.75;5091214;28;20071;-47
2023/12/25 10:50:20;;;;;;;7.28;5.80;;;;;;;19.48;35.20;99151.75;5091130;28;20555;-47
2023/12/25 10:52:49;;;;;;;6.00;5.40;;;;;;;19.35;36.08;99146.78;5089799;28;20553;-47
2023/12/25 10:55:33;;;;;;;7.25;5.90;;;;;;;19.69;35.79;99150.13;5089732;28;20032;-47
2023/12/25 10:58:00;;;;;;;8.52;5.55;;;;;;;20.45;34.55;99138.66;5091127;28;20036;-47
2023/12/25 11:00:28;;;;;;;7.15;6.07;;;;;;;20.73;33.53;99136.78;5089604;28;20127;-47
2023/12/25 11:02:57;;;;;;;8.93;6.38;;;;;;;20.87;33.56;99137.97;5091014;28;20486;-47
2023/12/25 11:05:24;;;;;;;8.90;6.30;;;;;;;20.88;33.35;99142.22;5090925;28;20097;-47
2023/12/25 11:07:51;;;;;;;9.35;6.97;;;;;;;21.17;33.25;99144.56;5089620;28;20081;-47
2023/12/25 11:10:17;;;;;;;9.65;6.97;;;;;;;21.25;32.49;99135.22;5089526;28;20044;-47
2023/12/25 11:12:44;;;;;;;7.72;6.68;;;;;;;20.62;33.44;99143.91;5089619;28;20478;-47
2023/12/25 11:15:11;;;;;;;11.65;6.82;;;;;;;20.67;33.80;99127.94;5089628;28;20031;-47
2023/12/25 11:17:39;;;;;;;7.28;6.00;;;;;;;20.78;33.15;99125.34;5090774;28;20050;-47
2023/12/25 11:20:10;;;;;;;8.98;6.82;;;;;;;20.85;32.97;99128.63;5090659;28;20028;-47
2023/12/25 11:22:36;;;;;;;7.20;6.50;;;;;;;20.95;32.68;99131.34;5044266;28;1420276;-47
2023/12/25 11:25:05;;;;;;;7.18;5.75;;;;;;;20.95;32.93;99126.81;5091564;28;20048;-47
2023/12/25 11:27:31;;;;;;;7.47;5.70;;;;;;;20.89;33.04;99135.84;5090246;28;20401;-47
2023/12/25 11:30:01;;;;;;;7.70;5.82;;;;;;;20.80;33.79;99134.69;5090283;28;20028;-47